Time;durP1;ratioP1;P1;durP2;ratioP2;P2;SDS_P1;SDS_P2;PMS_P1;PMS_P2;Temp;Humidity;BMP_temperature;BMP_pressure;BME280_temperature;BME280_humidity;BME280_pressure;Samples;Min_cycle;Max_cycle;Signal;HPM_P1;HPM_P2
2023/06/19 00:02:08;;;;;;;21.70;13.80;;;;;;;26.69;43.96;101119.47;5019510;28;20152;-81
2023/06/19 00:04:34;;;;;;;16.48;14.07;;;;;;;26.80;44.04;101135.03;5020211;28;20052;-81
2023/06/19 00:07:01;;;;;;;16.75;12.23;;;;;;;26.69;43.95;101122.19;5020350;28;20071;-83
2023/06/19 00:09:29;;;;;;;18.08;13.65;;;;;;;26.70;44.45;101138.31;5022584;28;20056;-83
2023/06/19 00:11:59;;;;;;;14.68;13.07;;;;;;;26.17;44.80;101060.84;5021058;28;20056;-81
2023/06/19 00:14:26;;;;;;;16.33;13.73;;;;;;;26.63;44.57;101148.44;5023947;28;20053;-81
2023/06/19 00:16:53;;;;;;;14.82;13.05;;;;;;;26.63;44.67;101149.28;5017641;28;20208;-82
2023/06/19 00:19:19;;;;;;;23.10;14.52;;;;;;;26.51;44.95;101140.19;5022186;28;20128;-82
2023/06/19 00:21:49;;;;;;;16.10;13.82;;;;;;;26.30;45.22;101111.56;5019157;28;20381;-82
2023/06/19 00:24:19;;;;;;;14.90;13.35;;;;;;;26.39;45.44;101137.41;5025675;28;20053;-80
2023/06/19 00:26:46;;;;;;;16.80;13.63;;;;;;;26.38;45.22;101134.91;5023887;28;20045;-82
2023/06/19 00:29:15;;;;;;;15.57;13.30;;;;;;;26.49;45.09;101144.22;5025656;28;20045;-82
2023/06/19 00:31:44;;;;;;;15.10;13.60;;;;;;;26.16;45.12;101105.44;5024909;28;20099;-82
2023/06/19 00:34:13;;;;;;;17.70;14.13;;;;;;;26.25;45.97;101135.91;5029329;28;20049;-83
2023/06/19 00:36:40;;;;;;;28.98;14.13;;;;;;;25.65;45.93;101054.09;5000186;28;20167;-82
2023/06/19 00:39:08;;;;;;;15.85;13.07;;;;;;;26.03;45.71;101116.47;5025825;28;20318;-81
2023/06/19 00:41:39;;;;;;;19.85;14.30;;;;;;;24.96;45.94;100948.16;5023653;28;20056;-81
2023/06/19 00:44:09;;;;;;;15.00;13.40;;;;;;;26.17;46.07;101160.72;5027758;28;20045;-81
2023/06/19 00:46:39;;;;;;;18.30;14.00;;;;;;;25.89;45.85;101129.38;5026442;28;20527;-82
2023/06/19 00:49:08;;;;;;;16.65;14.73;;;;;;;25.89;46.01;101136.72;5023608;28;20140;-82
2023/06/19 00:51:35;;;;;;;15.60;13.95;;;;;;;25.58;46.19;101108.53;5024853;28;20057;-83
2023/06/19 00:54:02;;;;;;;16.55;14.10;;;;;;;25.83;46.15;101148.44;5024221;28;20283;-82
2023/06/19 00:56:35;;;;;;;19.25;15.18;;;;;;;25.11;46.50;101029.31;5023629;28;20519;-80
2023/06/19 00:59:14;;;;;;;16.00;13.73;;;;;;;25.56;46.64;101110.66;5019878;28;20118;-82
2023/06/19 01:01:41;;;;;;;17.50;14.73;;;;;;;25.82;46.81;101158.50;5017765;28;20521;-82
2023/06/19 01:04:11;;;;;;;17.85;14.25;;;;;;;25.68;46.68;101146.94;5015754;28;20135;-82
2023/06/19 01:07:09;;;;;;;16.98;14.50;;;;;;;25.90;46.85;101187.31;5016211;28;20053;-82
2023/06/19 01:09:48;;;;;;;20.40;14.73;;;;;;;25.80;46.90;101175.06;4989356;28;20110;-83
2023/06/19 01:12:50;;;;;;;21.20;15.45;;;;;;;25.83;46.76;101175.66;4978488;28;20114;-83
2023/06/19 01:15:18;;;;;;;22.17;14.60;;;;;;;25.89;46.54;101186.50;5004621;28;20056;-81
2023/06/19 01:17:48;;;;;;;22.85;14.48;;;;;;;25.72;46.78;101158.19;5016026;28;20045;-82
2023/06/19 01:20:19;;;;;;;18.70;14.80;;;;;;;25.62;47.00;101147.81;5023025;28;20340;-82
2023/06/19 01:22:48;;;;;;;15.80;13.90;;;;;;;25.62;47.32;101169.56;5023313;28;20073;-81
2023/06/19 01:25:16;;;;;;;18.45;14.13;;;;;;;25.52;47.25;101155.66;5024951;28;20051;-81
2023/06/19 01:27:47;;;;;;;17.92;14.40;;;;;;;25.54;46.99;101167.13;5017669;28;20077;-82
2023/06/19 01:30:14;;;;;;;16.27;13.63;;;;;;;25.57;47.07;101180.28;5009293;28;20666;-83
2023/06/19 01:32:50;;;;;;;16.58;13.07;;;;;;;25.61;46.81;101184.22;4984335;28;20053;-81
2023/06/19 01:35:23;;;;;;;17.83;12.77;;;;;;;25.60;45.98;101168.94;5020017;28;20204;-81
2023/06/19 01:37:52;;;;;;;18.20;13.98;;;;;;;25.59;46.25;101180.91;5024468;28;20064;-82
2023/06/19 01:40:25;;;;;;;20.30;13.60;;;;;;;25.42;46.49;101168.91;5023257;28;20489;-82
2023/06/19 01:42:55;;;;;;;25.08;13.85;;;;;;;25.49;46.34;101169.69;5024080;28;20528;-82
2023/06/19 01:45:25;;;;;;;17.20;12.27;;;;;;;25.56;46.08;101184.06;5021562;28;20140;-82
2023/06/19 01:47:53;;;;;;;19.60;13.23;;;;;;;25.53;45.71;101182.59;5021278;28;20075;-82
2023/06/19 01:50:23;;;;;;;17.17;13.07;;;;;;;25.31;45.85;101151.41;5017744;28;20056;-80
2023/06/19 01:52:51;;;;;;;14.93;12.25;;;;;;;25.53;45.75;101188.03;5013251;28;20200;-82
2023/06/19 01:55:18;;;;;;;12.65;11.45;;;;;;;25.53;45.70;101187.22;5022260;28;20098;-82
2023/06/19 01:57:49;;;;;;;17.48;12.93;;;;;;;25.45;45.95;101188.31;5016594;28;20048;-81
2023/06/19 02:00:22;;;;;;;14.97;13.37;;;;;;;25.39;45.72;101175.63;5002114;28;20293;-82
2023/06/19 02:03:10;;;;;;;15.18;12.50;;;;;;;25.43;46.04;101182.25;4975323;28;20593;-83
2023/06/19 02:05:45;;;;;;;13.68;12.27;;;;;;;25.42;45.95;101169.75;4998756;28;20493;-82
2023/06/19 02:08:15;;;;;;;18.63;12.73;;;;;;;25.42;46.22;101185.22;5020719;28;20670;-82
2023/06/19 02:10:42;;;;;;;15.98;11.98;;;;;;;25.33;45.89;101168.34;5027144;28;20059;-83
2023/06/19 02:13:09;;;;;;;16.15;12.82;;;;;;;25.27;45.82;101156.47;5023153;28;20300;-81
2023/06/19 02:15:38;;;;;;;16.45;12.18;;;;;;;25.08;45.96;101135.69;5018536;28;20072;-82
2023/06/19 02:18:10;;;;;;;13.95;11.57;;;;;;;25.21;45.60;101156.53;4999471;28;20132;-83
2023/06/19 02:20:43;;;;;;;23.75;12.80;;;;;;;24.93;45.99;101117.81;4998571;28;20262;-81
2023/06/19 02:23:13;;;;;;;20.02;12.43;;;;;;;25.32;46.09;101186.53;5018931;28;20056;-82
2023/06/19 02:25:40;;;;;;;15.10;12.45;;;;;;;25.04;46.12;101146.13;4994300;28;20060;-81
2023/06/19 02:28:07;;;;;;;15.95;12.77;;;;;;;25.07;46.24;101155.72;5005634;28;20044;-81
2023/06/19 02:30:34;;;;;;;13.32;11.82;;;;;;;25.24;46.14;101189.50;4978095;28;20057;-83
2023/06/19 02:33:01;;;;;;;13.52;11.98;;;;;;;25.12;46.03;101174.91;4997168;28;20285;-82
2023/06/19 02:35:33;;;;;;;17.48;13.10;;;;;;;25.12;46.19;101181.22;5006691;28;20154;-83
2023/06/19 02:38:04;;;;;;;14.38;12.43;;;;;;;25.12;46.02;101183.94;4989993;28;20155;-82
2023/06/19 02:40:35;;;;;;;15.38;11.80;;;;;;;24.78;46.18;101130.00;4941320;28;20225;-83
2023/06/19 02:43:05;;;;;;;14.43;10.90;;;;;;;25.09;45.74;101180.81;4978774;28;20722;-83
2023/06/19 02:45:36;;;;;;;15.75;12.98;;;;;;;25.09;45.91;101194.38;4978416;28;20313;-83
2023/06/19 02:48:13;;;;;;;17.50;12.40;;;;;;;25.12;46.08;101202.94;4966678;28;20057;-83
2023/06/19 02:50:45;;;;;;;21.00;13.02;;;;;;;25.16;45.79;101204.16;4962632;28;20053;-81
2023/06/19 02:53:12;;;;;;;16.23;12.52;;;;;;;24.88;46.08;101171.94;5005931;28;20155;-82
2023/06/19 02:55:43;;;;;;;13.45;12.07;;;;;;;24.80;45.81;101147.75;4994330;28;20273;-83
2023/06/19 02:58:14;;;;;;;14.70;12.25;;;;;;;24.75;46.03;101150.28;4985984;28;20075;-82
2023/06/19 03:00:48;;;;;;;14.38;12.52;;;;;;;24.76;46.23;101172.81;4987925;28;20118;-82
2023/06/19 03:03:20;;;;;;;14.90;11.90;;;;;;;24.72;46.33;101175.16;4997943;28;20057;-83
2023/06/19 03:05:46;;;;;;;;;;;;;;;24.90;46.55;101213.31;5015459;28;20045;-82
2023/06/19 03:08:13;;;;;;;16.63;12.18;;;;;;;24.83;46.16;101198.94;5001449;28;19994;-81
2023/06/19 03:10:40;;;;;;;19.17;11.95;;;;;;;24.94;46.37;101216.41;4998768;28;20052;-81
2023/06/19 03:13:14;;;;;;;16.50;11.63;;;;;;;24.89;45.93;101203.47;5011859;28;20099;-80
2023/06/19 03:15:52;;;;;;;14.77;12.20;;;;;;;24.76;46.29;101189.13;4984746;28;20053;-80
2023/06/19 03:18:20;;;;;;;13.00;11.68;;;;;;;24.95;46.12;101224.34;4996173;28;20056;-80
2023/06/19 03:20:46;;;;;;;21.80;13.23;;;;;;;24.78;46.05;101201.44;5002780;28;20052;-80
2023/06/19 03:23:16;;;;;;;13.57;12.18;;;;;;;24.97;46.15;101231.44;5005866;28;20133;-80
2023/06/19 03:25:43;;;;;;;16.88;11.65;;;;;;;24.94;46.16;101228.09;4997916;28;20052;-80
2023/06/19 03:28:10;;;;;;;12.93;11.52;;;;;;;24.60;46.09;101164.13;5026073;28;20059;-80
2023/06/19 03:30:37;;;;;;;16.05;11.68;;;;;;;24.65;46.04;101185.22;5014353;28;20480;-80
2023/06/19 03:33:05;;;;;;;18.05;12.95;;;;;;;24.85;46.42;101213.09;5010534;28;20546;-80
2023/06/19 03:35:31;;;;;;;12.80;11.45;;;;;;;24.68;46.29;101203.78;5013128;28;20583;-81
2023/06/19 03:37:58;;;;;;;13.07;11.63;;;;;;;24.78;46.32;101215.00;5009719;28;20052;-79
2023/06/19 03:40:25;;;;;;;16.50;12.07;;;;;;;24.68;46.48;101196.47;5009321;28;20067;-79
2023/06/19 03:42:52;;;;;;;15.57;11.95;;;;;;;24.79;47.12;101219.41;5020283;28;20459;-80
2023/06/19 03:45:19;;;;;;;14.35;12.85;;;;;;;24.77;46.79;101221.50;5005460;28;20057;-80
2023/06/19 03:47:45;;;;;;;15.45;11.95;;;;;;;24.75;47.36;101218.16;5015110;28;20091;-80
2023/06/19 03:50:17;;;;;;;14.23;11.45;;;;;;;24.79;47.15;101213.16;5015819;28;20068;-80
2023/06/19 03:52:52;;;;;;;20.27;12.15;;;;;;;24.69;47.35;101200.84;5011284;28;20045;-80
2023/06/19 03:55:18;;;;;;;15.75;12.57;;;;;;;24.79;47.27;101208.53;5011574;28;20053;-80
2023/06/19 03:57:45;;;;;;;17.83;11.80;;;;;;;24.13;47.37;101111.06;5010854;28;20056;-80
2023/06/19 04:00:14;;;;;;;17.38;12.27;;;;;;;24.60;47.40;101187.75;5022855;28;20064;-79
2023/06/19 04:02:47;;;;;;;15.15;12.52;;;;;;;24.83;47.51;101217.94;5021825;28;20045;-80
2023/06/19 04:05:17;;;;;;;15.18;12.40;;;;;;;24.44;47.80;101157.31;5031074;28;20087;-80
2023/06/19 04:07:44;;;;;;;20.92;12.80;;;;;;;24.65;47.40;101196.91;5005645;28;20050;-80
2023/06/19 04:10:11;;;;;;;14.18;12.63;;;;;;;24.81;47.91;101219.16;5005247;28;20049;-80
2023/06/19 04:12:40;;;;;;;14.60;12.45;;;;;;;24.85;47.50;101223.94;5000956;28;20052;-81
2023/06/19 04:15:08;;;;;;;14.82;12.68;;;;;;;24.77;47.36;101205.22;5004729;28;20053;-81
2023/06/19 04:17:39;;;;;;;15.35;12.18;;;;;;;24.65;47.77;101190.63;4992616;28;20415;-80
2023/06/19 04:20:16;;;;;;;15.95;11.88;;;;;;;24.86;47.52;101225.63;4995547;28;20052;-81
2023/06/19 04:22:43;;;;;;;21.65;12.73;;;;;;;24.85;47.89;101218.53;5005147;28;20288;-81
2023/06/19 04:25:10;;;;;;;18.30;12.18;;;;;;;24.68;48.05;101192.91;4996346;28;20057;-81
2023/06/19 04:27:37;;;;;;;15.75;12.15;;;;;;;23.97;48.39;101077.94;4994621;28;20403;-80
2023/06/19 04:30:06;;;;;;;14.50;11.68;;;;;;;24.92;48.15;101213.91;5004009;28;20481;-81
2023/06/19 04:32:40;;;;;;;16.15;12.00;;;;;;;24.76;48.26;101192.69;5007269;28;20045;-81
2023/06/19 04:35:09;;;;;;;17.45;12.15;;;;;;;24.92;48.36;101219.31;5006761;28;20368;-81
2023/06/19 04:37:36;;;;;;;19.52;12.65;;;;;;;24.66;48.77;101173.28;5010908;28;20049;-82
2023/06/19 04:40:07;;;;;;;14.48;12.43;;;;;;;24.73;49.22;101193.97;5017262;28;20343;-82
2023/06/19 04:42:33;;;;;;;13.50;11.77;;;;;;;24.75;49.28;101201.88;5020264;28;20168;-82
2023/06/19 04:45:00;;;;;;;15.05;12.55;;;;;;;24.85;49.83;101215.81;5022570;28;20151;-82
2023/06/19 04:47:27;;;;;;;15.20;12.10;;;;;;;24.72;49.90;101194.16;5022816;28;20508;-81
2023/06/19 04:50:08;;;;;;;15.43;12.15;;;;;;;24.80;50.05;101198.50;5012969;28;20048;-81
2023/06/19 04:52:35;;;;;;;16.30;13.00;;;;;;;24.67;50.10;101183.13;5022470;28;20098;-83
2023/06/19 04:55:02;;;;;;;16.75;12.15;;;;;;;24.98;49.74;101222.22;5020671;28;20140;-83
2023/06/19 04:57:29;;;;;;;19.88;12.57;;;;;;;24.91;49.93;101197.84;5012015;28;20542;-81
2023/06/19 04:59:58;;;;;;;18.05;12.63;;;;;;;24.94;49.71;101195.50;5026275;28;20049;-82
2023/06/19 05:02:25;;;;;;;19.10;14.07;;;;;;;25.07;50.01;101204.63;5025092;28;20391;-81
2023/06/19 05:04:53;;;;;;;14.65;12.57;;;;;;;25.07;49.81;101193.75;5026906;28;20064;-83
2023/06/19 05:07:20;;;;;;;18.67;12.43;;;;;;;24.95;49.97;101170.03;5022149;28;20064;-82
2023/06/19 05:09:47;;;;;;;15.30;12.07;;;;;;;25.07;50.16;101181.00;5022910;28;20045;-81
2023/06/19 05:12:14;;;;;;;15.40;12.02;;;;;;;25.07;50.22;101172.03;5019786;28;20405;-83
2023/06/19 05:14:41;;;;;;;17.63;12.98;;;;;;;24.87;50.16;101148.53;5023140;28;20151;-82
2023/06/19 05:17:09;;;;;;;19.23;12.93;;;;;;;25.44;49.61;101211.13;5029119;28;20049;-82
2023/06/19 05:19:36;;;;;;;16.50;11.80;;;;;;;25.19;49.52;101164.88;5029856;28;20041;-81
2023/06/19 05:22:09;;;;;;;15.65;12.43;;;;;;;25.57;49.43;101223.78;5020862;28;20094;-82
2023/06/19 05:24:45;;;;;;;17.58;12.45;;;;;;;25.62;49.47;101206.81;5018966;28;20055;-82
2023/06/19 05:27:14;;;;;;;16.35;13.10;;;;;;;25.56;49.06;101193.03;5012686;28;20061;-82
2023/06/19 05:29:43;;;;;;;16.58;13.10;;;;;;;25.66;49.47;101203.44;5020290;28;20103;-79
2023/06/19 05:32:17;;;;;;;17.73;12.13;;;;;;;25.83;48.30;101233.63;5024363;28;20127;-81
2023/06/19 05:34:49;;;;;;;17.85;12.30;;;;;;;25.89;48.62;101231.91;5025610;28;20520;-82
2023/06/19 05:37:19;;;;;;;15.45;11.48;;;;;;;25.97;48.80;101226.19;5026243;28;20047;-81
2023/06/19 05:39:46;;;;;;;15.27;12.63;;;;;;;25.72;47.65;101169.88;5004513;28;20049;-82
2023/06/19 05:42:12;;;;;;;18.48;12.40;;;;;;;25.91;48.72;101205.34;5018477;28;20060;-81
2023/06/19 05:44:40;;;;;;;21.35;12.05;;;;;;;26.03;48.94;101208.97;5025862;28;20045;-81
2023/06/19 05:47:10;;;;;;;19.10;12.27;;;;;;;26.08;48.64;101222.72;5018333;28;20049;-80
2023/06/19 05:49:37;;;;;;;16.65;12.32;;;;;;;26.12;48.44;101215.78;5030899;28;20498;-81
2023/06/19 05:52:04;;;;;;;15.55;12.05;;;;;;;26.07;48.58;101225.66;5024567;28;20051;-82
2023/06/19 05:54:30;;;;;;;14.48;11.68;;;;;;;26.13;48.55;101220.16;5011084;28;20424;-81
2023/06/19 05:56:57;;;;;;;18.55;13.38;;;;;;;25.93;48.26;101187.72;5024640;28;20077;-82
2023/06/19 05:59:24;;;;;;;13.52;12.13;;;;;;;26.19;48.20;101223.88;5019622;28;20049;-83
2023/06/19 06:02:05;;;;;;;14.63;11.70;;;;;;;25.94;48.37;101177.69;5025243;28;20429;-83
2023/06/19 06:04:36;;;;;;;18.40;12.27;;;;;;;26.28;47.50;101218.97;5023139;28;20045;-82
2023/06/19 06:07:04;;;;;;;17.50;12.10;;;;;;;26.28;47.78;101221.69;5009388;28;20045;-83
2023/06/19 06:09:32;;;;;;;22.23;12.82;;;;;;;26.28;47.29;101221.69;5018863;28;20143;-80
2023/06/19 06:12:00;;;;;;;21.35;12.48;;;;;;;26.35;47.05;101222.47;5032488;28;20093;-83
2023/06/19 06:14:27;;;;;;;16.40;11.93;;;;;;;26.11;47.06;101178.75;5033487;28;20052;-82
2023/06/19 06:16:53;;;;;;;15.00;12.30;;;;;;;25.73;47.15;101121.78;5021844;28;20059;-81
2023/06/19 06:19:22;;;;;;;16.38;11.90;;;;;;;26.30;47.23;101200.53;5034371;28;20088;-83
2023/06/19 06:21:49;;;;;;;15.93;12.10;;;;;;;26.29;47.14;101199.72;5013722;28;20274;-82
2023/06/19 06:24:17;;;;;;;16.58;12.95;;;;;;;26.21;47.22;101178.22;5022335;28;20045;-81
2023/06/19 06:26:46;;;;;;;13.90;12.50;;;;;;;26.55;45.12;101204.03;5006623;28;20377;-83
2023/06/19 06:29:14;;;;;;;17.25;11.73;;;;;;;25.90;45.43;101095.72;5014407;28;20044;-82
2023/06/19 06:31:41;;;;;;;16.83;12.52;;;;;;;26.40;44.01;101173.63;5000695;28;20455;-82
2023/06/19 06:34:08;;;;;;;19.10;12.07;;;;;;;26.44;45.13;101180.28;5026185;28;20049;-81
2023/06/19 06:36:35;;;;;;;13.55;11.75;;;;;;;26.58;44.16;101205.47;5019585;28;20061;-81
2023/06/19 06:39:10;;;;;;;15.63;12.15;;;;;;;26.49;44.30;101179.59;4994364;28;20059;-81
2023/06/19 06:41:37;;;;;;;13.77;11.98;;;;;;;26.71;43.90;101209.94;5003232;28;20159;-82
2023/06/19 06:44:10;;;;;;;15.70;12.02;;;;;;;26.74;44.24;101213.03;4993935;28;20053;-80
2023/06/19 06:46:43;;;;;;;14.98;11.45;;;;;;;26.65;44.79;101195.31;4963912;28;20167;-81
2023/06/19 06:49:26;;;;;;;21.42;13.13;;;;;;;26.70;44.97;101200.94;5003651;28;20048;-81
2023/06/19 06:52:09;;;;;;;18.55;12.15;;;;;;;26.71;43.25;101182.69;5007508;28;20052;-79
2023/06/19 06:54:55;;;;;;;16.67;12.13;;;;;;;26.96;44.15;101212.53;4984488;28;20642;-80
2023/06/19 06:57:36;;;;;;;15.23;11.63;;;;;;;26.81;43.87;101188.44;4988056;28;20120;-79
2023/06/19 07:00:05;;;;;;;17.92;11.13;;;;;;;26.74;43.95;101155.00;5020126;28;20049;-81
2023/06/19 07:02:32;;;;;;;13.05;10.73;;;;;;;27.24;44.40;101231.03;5006940;28;20053;-80
2023/06/19 07:04:59;;;;;;;16.30;11.75;;;;;;;27.20;44.93;101240.75;4997879;28;20053;-81
2023/06/19 07:07:26;;;;;;;13.77;11.35;;;;;;;27.16;44.85;101244.94;4999638;28;20273;-81
2023/06/19 07:09:54;;;;;;;13.38;11.38;;;;;;;27.12;43.95;101216.53;5004460;28;20355;-81
2023/06/19 07:12:22;;;;;;;16.63;12.10;;;;;;;27.30;44.33;101246.47;5001570;28;20118;-81
2023/06/19 07:14:49;;;;;;;16.67;11.68;;;;;;;27.41;43.56;101237.50;4929950;28;20137;-81
2023/06/19 07:17:16;;;;;;;12.55;11.23;;;;;;;27.36;43.88;101217.47;4994797;28;20496;-81
2023/06/19 07:19:46;;;;;;;16.20;11.63;;;;;;;27.19;44.01;101201.75;4920015;28;20553;-81
2023/06/19 07:22:14;;;;;;;20.23;11.18;;;;;;;27.41;42.68;101232.03;4966530;28;20053;-81
2023/06/19 07:24:42;;;;;;;12.85;11.02;;;;;;;27.32;42.96;101225.25;4967379;28;20053;-82
2023/06/19 07:27:14;;;;;;;16.85;11.10;;;;;;;27.34;42.53;101220.41;4956078;28;20108;-81
2023/06/19 07:29:56;;;;;;;16.38;11.48;;;;;;;27.43;43.44;101218.16;4962378;28;20050;-80
2023/06/19 07:32:24;;;;;;;21.75;11.93;;;;;;;27.46;43.01;101218.53;4918414;28;20196;-81
2023/06/19 07:34:51;;;;;;;14.00;12.00;;;;;;;27.41;43.88;101215.69;5002740;28;20053;-81
2023/06/19 07:37:18;;;;;;;14.20;11.10;;;;;;;27.02;43.49;101151.69;4988509;28;20049;-80
2023/06/19 07:39:47;;;;;;;17.35;12.07;;;;;;;27.55;43.59;101232.66;4985675;28;20053;-81
2023/06/19 07:42:14;;;;;;;14.90;11.80;;;;;;;26.46;42.70;101043.91;4984266;28;20298;-81
2023/06/19 07:44:42;;;;;;;16.13;11.70;;;;;;;27.60;44.08;101229.22;5011380;28;20049;-80
2023/06/19 07:47:11;;;;;;;15.25;10.93;;;;;;;27.42;42.74;101200.97;5002397;28;20067;-81
2023/06/19 07:49:39;;;;;;;13.77;11.10;;;;;;;27.14;41.99;101140.78;5025389;28;20092;-84
2023/06/19 07:52:09;;;;;;;14.02;10.57;;;;;;;27.60;41.04;101215.56;5034191;28;20124;-80
2023/06/19 07:54:57;;;;;;;13.70;10.48;;;;;;;27.70;41.57;101219.41;5034834;28;20300;-81
2023/06/19 07:57:25;;;;;;;16.63;11.35;;;;;;;27.76;41.50;101217.63;5029708;28;20049;-81
2023/06/19 08:00:11;;;;;;;17.02;11.77;;;;;;;27.26;41.04;101115.28;5037064;28;20044;-81
2023/06/19 08:02:40;;;;;;;12.77;10.48;;;;;;;27.66;40.97;101146.47;5026753;28;20199;-81
2023/06/19 08:05:09;;;;;;;11.65;10.57;;;;;;;28.14;40.29;101202.72;5023384;28;20049;-81
2023/06/19 08:07:36;;;;;;;20.08;11.73;;;;;;;28.27;39.90;101213.38;5023073;28;20123;-82
2023/06/19 08:10:08;;;;;;;13.93;10.82;;;;;;;28.40;39.30;101211.44;4999983;28;20335;-81
2023/06/19 08:12:44;;;;;;;16.83;11.10;;;;;;;28.46;38.36;101218.72;4990306;28;20073;-81
2023/06/19 08:15:13;;;;;;;12.48;11.23;;;;;;;28.12;38.87;101153.00;5012432;28;20048;-81
2023/06/19 08:17:42;;;;;;;12.73;11.35;;;;;;;28.33;39.06;101212.44;5031743;28;20064;-83
2023/06/19 08:20:15;;;;;;;14.27;11.23;;;;;;;28.34;39.26;101211.34;5028959;28;20106;-82
2023/06/19 08:22:43;;;;;;;13.30;10.95;;;;;;;28.13;40.91;101190.97;5020890;28;20548;-82
2023/06/19 08:25:10;;;;;;;18.85;10.60;;;;;;;28.34;40.21;101215.97;5005037;28;20064;-82
2023/06/19 08:27:45;;;;;;;12.88;11.55;;;;;;;28.33;40.25;101215.16;5019437;28;20056;-83
2023/06/19 08:30:13;;;;;;;11.57;10.27;;;;;;;27.57;40.22;101071.53;5021078;28;20049;-83
2023/06/19 08:32:44;;;;;;;14.07;10.93;;;;;;;28.51;39.19;101218.84;5029845;28;20052;-82
2023/06/19 08:35:12;;;;;;;12.63;11.33;;;;;;;28.43;39.59;101200.06;5014739;28;20057;-81
2023/06/19 08:37:39;;;;;;;18.85;11.13;;;;;;;28.58;38.98;101208.59;5012916;28;20049;-82
2023/06/19 08:40:12;;;;;;;14.98;11.15;;;;;;;28.55;39.45;101182.59;5021980;28;20060;-81
2023/06/19 08:42:39;;;;;;;16.20;11.80;;;;;;;28.81;39.70;101206.88;5025633;28;20139;-82
2023/06/19 08:45:10;;;;;;;13.75;11.23;;;;;;;28.80;39.51;101199.75;5009277;28;20049;-82
2023/06/19 08:47:37;;;;;;;17.40;12.18;;;;;;;28.65;38.91;101156.56;4953539;28;20137;-82
2023/06/19 08:50:04;;;;;;;15.27;11.05;;;;;;;29.09;38.66;101215.09;5015618;28;20049;-81
2023/06/19 08:52:33;;;;;;;16.60;11.25;;;;;;;29.07;39.02;101200.84;5029719;28;20133;-82
2023/06/19 08:55:05;;;;;;;14.52;11.35;;;;;;;28.90;38.86;101162.50;5001877;28;20571;-81
2023/06/19 08:57:38;;;;;;;12.20;10.55;;;;;;;28.86;39.55;101168.69;4930181;28;20054;-82
2023/06/19 09:00:13;;;;;;;15.07;11.43;;;;;;;29.16;38.57;101204.84;4960455;28;20050;-81
2023/06/19 09:02:45;;;;;;;12.57;11.20;;;;;;;29.18;38.37;101201.88;4920469;28;20710;-82
2023/06/19 09:05:26;;;;;;;13.30;11.30;;;;;;;29.10;38.92;101197.59;5010098;28;20053;-80
2023/06/19 09:08:01;;;;;;;14.18;12.50;;;;;;;29.27;39.97;101214.03;4984615;28;20049;-82
2023/06/19 09:10:27;;;;;;;11.32;9.90;;;;;;;29.28;38.72;101201.22;4993447;28;20464;-82
2023/06/19 09:13:02;;;;;;;14.68;11.82;;;;;;;29.28;37.43;101212.16;4994704;28;20141;-82
2023/06/19 09:15:32;;;;;;;13.07;11.20;;;;;;;29.17;37.83;101195.56;4989720;28;20057;-81
2023/06/19 09:18:07;;;;;;;16.38;11.50;;;;;;;28.49;38.13;101073.50;4991863;28;20131;-82
2023/06/19 09:20:38;;;;;;;17.42;11.50;;;;;;;29.24;38.89;101184.47;4980012;28;20603;-82
2023/06/19 09:23:05;;;;;;;;;;;;;;;29.42;38.86;101207.19;4940132;28;20059;-81
2023/06/19 09:25:32;;;;;;;18.02;12.13;;;;;;;29.67;38.45;101206.81;4938810;28;20008;-81
2023/06/19 09:27:59;;;;;;;16.88;11.38;;;;;;;29.45;38.54;101168.41;4976043;28;20342;-82
2023/06/19 09:30:31;;;;;;;16.35;11.77;;;;;;;29.65;38.69;101201.56;5002430;28;20302;-82
2023/06/19 09:33:10;;;;;;;15.45;11.43;;;;;;;29.41;38.12;101162.59;4957213;28;20041;-82
2023/06/19 09:35:41;;;;;;;14.73;11.93;;;;;;;29.13;38.23;101112.41;4981069;28;20057;-82
2023/06/19 09:38:08;;;;;;;13.27;11.88;;;;;;;29.32;37.75;101120.34;4994037;28;20481;-82
2023/06/19 09:40:39;;;;;;;14.68;10.88;;;;;;;28.99;38.30;101059.09;5007604;28;20554;-81
2023/06/19 09:43:08;;;;;;;16.70;13.02;;;;;;;29.53;38.96;101122.31;5000515;28;20046;-82
2023/06/19 09:45:53;;;;;;;12.63;11.18;;;;;;;30.04;37.81;101194.25;4894090;28;20058;-83
2023/06/19 09:48:40;;;;;;;17.52;11.85;;;;;;;30.51;37.51;101192.16;4954940;28;20054;-83
2023/06/19 09:51:07;;;;;;;16.35;11.77;;;;;;;30.20;36.86;101153.41;4969320;28;20050;-82
2023/06/19 09:53:37;;;;;;;15.63;12.35;;;;;;;30.13;37.74;101153.59;4962721;28;20523;-82
2023/06/19 09:56:04;;;;;;;13.88;12.38;;;;;;;30.22;38.58;101162.16;4965169;28;20438;-81
2023/06/19 09:58:32;;;;;;;14.68;13.07;;;;;;;30.53;38.10;101196.28;4968493;28;20046;-81
2023/06/19 10:00:59;;;;;;;15.55;12.05;;;;;;;30.65;38.41;101202.47;4938530;28;20280;-81
2023/06/19 10:03:34;;;;;;;18.25;12.40;;;;;;;30.85;38.55;101199.19;4964016;28;20065;-81
2023/06/19 10:06:02;;;;;;;17.05;11.88;;;;;;;31.00;38.56;101203.16;4965048;28;20100;-82
2023/06/19 10:08:43;;;;;;;13.27;11.77;;;;;;;30.71;38.77;101125.78;4957312;28;20506;-82
2023/06/19 10:11:15;;;;;;;15.27;12.32;;;;;;;30.20;39.10;101027.47;5008591;28;20119;-82
2023/06/19 10:13:43;;;;;;;15.15;12.40;;;;;;;31.28;39.80;101197.38;5002623;28;20077;-80
2023/06/19 10:16:21;;;;;;;14.82;12.52;;;;;;;30.86;38.76;101113.09;5013325;28;20555;-80
2023/06/19 10:18:48;;;;;;;14.80;12.02;;;;;;;31.51;39.51;101206.41;5006725;28;20056;-81
2023/06/19 10:21:21;;;;;;;14.63;11.70;;;;;;;31.35;38.60;101142.31;5025194;28;20076;-82
2023/06/19 10:24:01;;;;;;;19.13;12.80;;;;;;;31.75;38.40;101178.56;5012573;28;20052;-81
2023/06/19 10:26:34;;;;;;;13.95;11.90;;;;;;;31.88;37.04;101172.63;5022275;28;20052;-82
2023/06/19 10:29:26;;;;;;;15.90;11.98;;;;;;;32.08;37.79;101204.91;5009061;28;20053;-81
2023/06/19 10:31:54;;;;;;;14.73;12.77;;;;;;;32.10;36.82;101198.06;4999623;28;20049;-80
2023/06/19 10:34:33;;;;;;;15.02;13.02;;;;;;;31.97;37.52;101168.34;5032468;28;20053;-81
2023/06/19 10:36:59;;;;;;;15.63;12.60;;;;;;;32.27;36.64;101208.03;5027864;28;20045;-81
2023/06/19 10:39:27;;;;;;;13.63;12.32;;;;;;;32.08;36.38;101192.00;5032254;28;20045;-82
2023/06/19 10:41:56;;;;;;;17.23;12.90;;;;;;;31.86;36.24;101152.84;5021026;28;20045;-82
2023/06/19 10:44:25;;;;;;;17.48;13.02;;;;;;;32.18;36.13;101188.47;4945617;28;20053;-82
2023/06/19 10:46:53;;;;;;;18.23;13.07;;;;;;;32.46;35.65;101205.66;5019654;28;20210;-82
2023/06/19 10:49:21;;;;;;;16.23;13.00;;;;;;;32.38;36.01;101165.75;4959790;28;20060;-81
2023/06/19 10:51:48;;;;;;;14.30;12.88;;;;;;;32.63;35.75;101183.47;5021242;28;20052;-82
2023/06/19 10:54:17;;;;;;;15.05;12.38;;;;;;;32.95;35.09;101208.84;5033180;28;20048;-82
2023/06/19 10:56:48;;;;;;;18.88;12.55;;;;;;;33.06;34.85;101207.00;5036001;28;20162;-81
2023/06/19 10:59:15;;;;;;;;;;;;;;;33.05;35.03;101193.50;5031919;28;20466;-82
2023/06/19 11:01:47;;;;;;;14.73;12.63;;;;;;;33.16;35.04;101186.91;5032770;28;20333;-83
2023/06/19 11:04:15;;;;;;;15.95;12.32;;;;;;;33.36;34.89;101192.41;5036164;28;20144;-82
2023/06/19 11:06:44;;;;;;;12.18;10.88;;;;;;;33.29;35.33;101153.34;5032362;28;20504;-83
2023/06/19 11:09:12;;;;;;;15.02;12.07;;;;;;;33.62;34.92;101184.19;5037711;28;20053;-82
2023/06/19 11:11:43;;;;;;;14.57;12.38;;;;;;;33.89;34.65;101177.50;5036088;28;20571;-81
2023/06/19 11:14:12;;;;;;;13.43;11.00;;;;;;;33.58;33.97;101106.84;5032409;28;20503;-81
2023/06/19 11:16:46;;;;;;;14.35;12.50;;;;;;;33.53;33.35;101082.06;5031423;28;20261;-81
2023/06/19 11:19:19;;;;;;;15.07;12.73;;;;;;;34.11;33.56;101152.44;5029231;28;20245;-81
2023/06/19 11:21:51;;;;;;;15.45;11.60;;;;;;;34.19;33.26;101133.38;5026459;28;20042;-83
2023/06/19 11:24:20;;;;;;;20.67;12.93;;;;;;;34.41;32.87;101151.47;5023794;28;20532;-81